createdAt,value
2023-03-25T00:01:29.963Z,100170.48
2023-03-25T00:04:04.481Z,100170.01
2023-03-25T00:06:37.978Z,100160.80
2023-03-25T00:09:12.182Z,100148.94
2023-03-25T00:11:45.790Z,100154.59
2023-03-25T00:14:19.585Z,100149.88
2023-03-25T00:16:53.437Z,100150.23
2023-03-25T00:19:28.016Z,100152.61
2023-03-25T00:22:01.843Z,100149.86
2023-03-25T00:24:35.875Z,100147.13
2023-03-25T00:27:08.702Z,100145.66
2023-03-25T00:29:42.238Z,100138.45
2023-03-25T00:32:16.487Z,100135.37
2023-03-25T00:34:50.222Z,100138.54
2023-03-25T00:37:25.888Z,100135.45
2023-03-25T00:40:00.135Z,100133.34
2023-03-25T00:42:35.141Z,100133.70
2023-03-25T00:45:11.207Z,100132.25
2023-03-25T00:47:44.591Z,100136.25
2023-03-25T00:50:18.639Z,100132.49
2023-03-25T00:52:53.824Z,100126.12
2023-03-25T00:55:27.208Z,100125.64
2023-03-25T00:58:00.857Z,100112.98
2023-03-25T01:00:34.462Z,100115.78
2023-03-25T01:03:09.920Z,100111.70
2023-03-25T01:05:43.392Z,100117.34
2023-03-25T01:08:18.074Z,100115.86
2023-03-25T01:10:51.330Z,100116.05
2023-03-25T01:13:25.634Z,100100.72
2023-03-25T01:15:58.891Z,100100.92
2023-03-25T01:18:35.028Z,100102.08
2023-03-25T01:21:10.643Z,100098.98
2023-03-25T01:23:44.653Z,100102.79
2023-03-25T01:26:18.276Z,100104.98
2023-03-25T01:28:51.423Z,100096.41
2023-03-25T01:31:26.234Z,100099.41
2023-03-25T01:33:59.676Z,100083.92
2023-03-25T01:36:33.827Z,100087.72
2023-03-25T01:39:08.636Z,100087.27
2023-03-25T01:41:49.148Z,100073.58
2023-03-25T01:44:58.434Z,100073.13
2023-03-25T01:47:33.082Z,100069.02
2023-03-25T01:50:08.947Z,100069.37
2023-03-25T01:52:42.719Z,100065.27
2023-03-25T01:55:18.151Z,100062.80
2023-03-25T01:57:54.627Z,100057.42
2023-03-25T02:00:28.889Z,100059.57
2023-03-25T02:03:03.445Z,100051.20
2023-03-25T02:05:43.906Z,100052.55
2023-03-25T02:08:18.280Z,100053.70
2023-03-25T02:10:52.518Z,100046.11
2023-03-25T02:13:26.468Z,100047.64
2023-03-25T02:16:29.590Z,100046.16
2023-03-25T02:19:26.381Z,100045.52
2023-03-25T02:22:43.314Z,100039.73
2023-03-25T02:25:39.892Z,100024.25
2023-03-25T02:28:26.386Z,100020.18
2023-03-25T02:31:38.130Z,100017.89
2023-03-25T02:34:46.394Z,100012.32
2023-03-25T02:37:59.583Z,100007.23
2023-03-25T02:40:41.769Z,100009.23
2023-03-25T02:43:21.537Z,100013.02
2023-03-25T02:46:01.122Z,100004.65
2023-03-25T02:48:39.490Z,100011.27
2023-03-25T02:51:19.324Z,100007.48
2023-03-25T02:53:54.613Z,100011.65
2023-03-25T02:56:33.315Z,100004.20
2023-03-25T02:59:09.952Z,100000.92
2023-03-25T03:01:45.765Z,99995.19
2023-03-25T03:04:19.472Z,99997.52
2023-03-25T03:06:54.909Z,99993.39
2023-03-25T03:09:39.717Z,99987.48
2023-03-25T03:12:29.587Z,99991.11
2023-03-25T03:15:17.422Z,99992.09
2023-03-25T03:17:58.532Z,100000.19
2023-03-25T03:20:41.076Z,100005.78
2023-03-25T03:23:15.225Z,100003.33
2023-03-25T03:25:54.353Z,100015.02
2023-03-25T03:28:34.300Z,100009.28
2023-03-25T03:31:13.196Z,100018.33
2023-03-25T03:34:11.179Z,100024.13
2023-03-25T03:36:49.582Z,100019.20
2023-03-25T03:39:29.771Z,100021.18
2023-03-25T03:42:07.995Z,100021.34
2023-03-25T03:44:45.617Z,100008.34
2023-03-25T03:47:23.932Z,100014.61
2023-03-25T03:50:01.308Z,100006.86
2023-03-25T03:52:38.746Z,99998.30
2023-03-25T03:55:15.770Z,99995.67
2023-03-25T03:57:56.117Z,100000.29
2023-03-25T04:00:34.291Z,100004.91
2023-03-25T04:03:14.779Z,100004.09
2023-03-25T04:05:55.159Z,100005.24
2023-03-25T04:08:35.825Z,100004.59
2023-03-25T04:11:18.176Z,100007.41
2023-03-25T04:13:51.004Z,100002.61
2023-03-25T04:16:24.940Z,100001.30
2023-03-25T04:18:58.772Z,100005.42
2023-03-25T04:21:31.966Z,100004.13
2023-03-25T04:24:08.419Z,100003.94
2023-03-25T04:26:42.466Z,100012.83
2023-03-25T04:29:15.905Z,100011.72
2023-03-25T04:31:50.882Z,100006.14
2023-03-25T04:34:24.910Z,100005.64
2023-03-25T04:36:59.065Z,100015.36
2023-03-25T04:39:32.888Z,100005.97
2023-03-25T04:42:06.785Z,100005.97
2023-03-25T04:44:40.501Z,100012.88
2023-03-25T04:47:18.126Z,100010.58
2023-03-25T04:49:51.587Z,100006.81
2023-03-25T04:52:25.611Z,100007.61
2023-03-25T04:54:58.996Z,100013.87
2023-03-25T04:57:32.843Z,100020.78
2023-03-25T05:00:07.833Z,100021.77
2023-03-25T05:02:46.242Z,100027.88
2023-03-25T05:05:21.564Z,100025.05
2023-03-25T05:07:58.535Z,100018.65
2023-03-25T05:10:32.650Z,100029.50
2023-03-25T05:13:07.828Z,100028.98
2023-03-25T05:15:41.295Z,100027.32
2023-03-25T05:18:17.271Z,100032.91
2023-03-25T05:20:51.776Z,100032.08
2023-03-25T05:23:25.170Z,100029.58
2023-03-25T05:25:58.736Z,100033.02
2023-03-25T05:28:32.145Z,100033.64
2023-03-25T05:31:08.626Z,100031.14
2023-03-25T05:33:43.718Z,100035.07
2023-03-25T05:36:17.789Z,100035.68
2023-03-25T05:38:51.466Z,100022.76
2023-03-25T05:41:32.927Z,100034.91
2023-03-25T05:44:07.187Z,100036.95
2023-03-25T05:59:22.116Z,100037.89
2023-03-25T06:01:55.532Z,100028.43
2023-03-25T06:04:29.313Z,100032.27
2023-03-25T07:11:26.615Z,100003.97
2023-03-25T07:57:44.574Z,100002.97
2023-03-25T08:00:19.004Z,99998.16
2023-03-25T08:02:53.261Z,99994.59
2023-03-25T08:08:01.255Z,99994.59
2023-03-25T08:28:27.610Z,99962.66
2023-03-25T08:31:02.798Z,99953.95
2023-03-25T08:33:41.368Z,99946.37
2023-03-25T08:36:20.431Z,99939.56
2023-03-25T08:38:54.353Z,99945.06
2023-03-25T08:41:28.145Z,99936.56
2023-03-25T08:44:01.725Z,99940.16
2023-03-25T08:46:35.383Z,99936.19
2023-03-25T08:49:09.050Z,99940.05
2023-03-25T08:51:42.851Z,99941.73
2023-03-25T08:54:16.456Z,99938.55
2023-03-25T08:56:50.525Z,99940.20
2023-03-25T08:59:24.794Z,99945.08
2023-03-25T09:02:00.789Z,99942.17
2023-03-25T09:04:34.748Z,99936.00
2023-03-25T09:07:12.586Z,99928.24
2023-03-25T09:09:46.043Z,99933.41
2023-03-25T09:12:19.503Z,99928.34
2023-03-25T09:14:52.831Z,99928.36
2023-03-25T09:17:27.528Z,99925.69
2023-03-25T09:20:01.003Z,99920.86
2023-03-25T09:22:34.323Z,99919.25
2023-03-25T09:25:10.937Z,99927.06
2023-03-25T09:27:43.896Z,99923.28
2023-03-25T09:30:19.661Z,99921.41
2023-03-25T09:32:53.186Z,99917.09
2023-03-25T09:35:26.775Z,99920.36
2023-03-25T09:38:00.196Z,99912.52
2023-03-25T09:40:35.789Z,99914.42
2023-03-25T09:43:22.498Z,99912.52
2023-03-25T09:45:58.290Z,99898.77
2023-03-25T09:48:38.331Z,99895.77
2023-03-25T09:51:19.579Z,99890.34
2023-03-25T09:53:57.491Z,99897.33
2023-03-25T09:56:41.895Z,99902.16
2023-03-25T09:59:19.828Z,99895.94
2023-03-25T10:02:03.600Z,99894.52
2023-03-25T10:04:57.460Z,99892.33
2023-03-25T10:07:46.227Z,99881.73
2023-03-25T10:10:27.184Z,99882.47
2023-03-25T10:13:08.913Z,99878.61
2023-03-25T10:15:46.249Z,99871.78
2023-03-25T10:18:39.121Z,99866.03
2023-03-25T10:21:18.245Z,99869.18
2023-03-25T10:23:59.214Z,99865.59
2023-03-25T10:26:38.692Z,99857.69
2023-03-25T10:29:16.989Z,99849.48
2023-03-25T10:31:54.373Z,99842.57
2023-03-25T10:34:37.580Z,99844.89
2023-03-25T10:37:18.367Z,99836.09
2023-03-25T10:39:52.318Z,99832.95
2023-03-25T10:42:33.741Z,99821.23
2023-03-25T10:45:14.506Z,99813.05
2023-03-25T10:47:51.418Z,99810.27
2023-03-25T10:50:26.361Z,99808.08
2023-03-25T10:53:00.301Z,99801.33
2023-03-25T10:55:37.622Z,99798.92
2023-03-25T10:58:12.672Z,99789.19
2023-03-25T11:00:46.008Z,99788.61
2023-03-25T11:03:23.664Z,99784.80
2023-03-25T11:05:57.121Z,99777.78
2023-03-25T11:08:30.731Z,99772.87
2023-03-25T11:11:06.262Z,99773.90
2023-03-25T11:13:41.714Z,99763.86
2023-03-25T11:16:16.073Z,99766.80
2023-03-25T11:18:49.756Z,99761.08
2023-03-25T11:21:23.968Z,99751.85
2023-03-25T11:23:57.956Z,99741.61
2023-03-25T11:26:38.727Z,99748.70
2023-03-25T11:29:16.950Z,99748.70
2023-03-25T11:31:59.423Z,99741.41
2023-03-25T11:34:33.321Z,99735.40
2023-03-25T11:37:17.505Z,99732.61
2023-03-25T11:39:55.781Z,99725.71
2023-03-25T11:42:34.417Z,99721.82
2023-03-25T11:45:20.390Z,99718.75
2023-03-25T11:47:54.944Z,99711.33
2023-03-25T11:50:30.718Z,99715.36
2023-03-25T11:53:06.223Z,99705.12
2023-03-25T11:55:47.086Z,99706.41
2023-03-25T11:58:23.532Z,99699.30
2023-03-25T12:01:05.496Z,99704.13
2023-03-25T12:03:39.827Z,99695.91
2023-03-25T12:06:20.466Z,99692.09
2023-03-25T12:08:55.645Z,99697.01
2023-03-25T12:11:34.064Z,99687.58
2023-03-25T12:14:27.699Z,99684.05
2023-03-25T12:17:07.718Z,99684.66
2023-03-25T12:19:54.425Z,99684.37
2023-03-25T12:22:46.424Z,99675.42
2023-03-25T12:25:33.990Z,99677.84
2023-03-25T12:28:32.480Z,99667.80
2023-03-25T12:31:11.579Z,99652.27
2023-03-25T12:33:59.642Z,99662.19
2023-03-25T12:36:45.732Z,99655.06
2023-03-25T12:39:43.333Z,99641.16
2023-03-25T12:42:29.792Z,99658.63
2023-03-25T12:45:23.938Z,99641.47
2023-03-25T12:48:03.991Z,99640.55
2023-03-25T12:50:49.828Z,99633.42
2023-03-25T12:53:46.250Z,99620.58
2023-03-25T12:56:37.806Z,99622.67
2023-03-25T12:59:38.647Z,99619.86
2023-03-25T13:02:31.822Z,99617.15
2023-03-25T13:05:17.655Z,99612.22
2023-03-25T13:07:55.986Z,99603.48
2023-03-25T13:10:35.567Z,99597.84
2023-03-25T13:13:15.746Z,99604.98
2023-03-25T13:15:54.659Z,99595.84
2023-03-25T13:18:33.000Z,99593.74
2023-03-25T13:21:14.187Z,99594.67
2023-03-25T13:23:54.129Z,99595.88
2023-03-25T13:26:31.624Z,99598.88
2023-03-25T13:29:09.177Z,99598.70
2023-03-25T13:31:47.061Z,99600.91
2023-03-25T13:34:30.067Z,99590.34
2023-03-25T13:37:18.061Z,99596.47
2023-03-25T13:40:04.379Z,99595.16
2023-03-25T13:42:44.441Z,99587.13
2023-03-25T13:45:21.433Z,99588.61
2023-03-25T13:48:03.870Z,99573.17
2023-03-25T13:50:38.010Z,99574.78
2023-03-25T13:53:20.317Z,99573.67
2023-03-25T13:56:15.115Z,99571.85
2023-03-25T13:59:06.512Z,99556.41
2023-03-25T14:01:54.940Z,99552.98
2023-03-25T14:04:49.128Z,99540.85
2023-03-25T14:07:59.427Z,99548.16
2023-03-25T14:11:03.192Z,99529.40
2023-03-25T14:13:41.232Z,99545.25
2023-03-25T14:16:17.462Z,99541.03
2023-03-25T14:18:54.086Z,99540.02
2023-03-25T14:21:34.219Z,99541.12
2023-03-25T14:24:13.040Z,99533.31
2023-03-25T14:26:52.303Z,99529.00
2023-03-25T14:29:37.819Z,99534.09
2023-03-25T14:32:32.654Z,99527.08
2023-03-25T14:35:41.878Z,99538.51
2023-03-25T14:38:55.123Z,99530.56
2023-03-25T14:41:59.097Z,99532.64
2023-03-25T14:44:33.505Z,99540.70
2023-03-25T14:47:33.071Z,99542.79
2023-03-25T14:50:31.026Z,99542.36
2023-03-25T14:53:11.901Z,99536.60
2023-03-25T14:55:48.696Z,99541.34
2023-03-25T14:58:25.314Z,99530.98
2023-03-25T15:01:01.142Z,99540.90
2023-03-25T15:03:37.488Z,99531.59
2023-03-25T15:06:16.465Z,99522.31
2023-03-25T15:08:59.729Z,99537.78
2023-03-25T15:11:37.471Z,99537.63
2023-03-25T15:14:15.495Z,99525.31
2023-03-25T15:17:05.030Z,99528.64
2023-03-25T15:20:27.741Z,99527.97
2023-03-25T15:23:33.128Z,99522.95
2023-03-25T15:26:10.977Z,99530.34
2023-03-25T15:29:11.549Z,99529.87
2023-03-25T15:32:10.035Z,99528.01
2023-03-25T15:35:14.804Z,99535.11
2023-03-25T15:38:07.200Z,99525.23
2023-03-25T15:40:57.770Z,99536.06
2023-03-25T15:44:14.988Z,99531.28
2023-03-25T15:47:22.192Z,99531.36
2023-03-25T15:50:12.959Z,99528.45
2023-03-25T15:53:35.907Z,99532.83
2023-03-25T15:56:17.832Z,99535.30
2023-03-25T15:58:58.906Z,99532.11
2023-03-25T16:01:34.498Z,99527.02
2023-03-25T16:04:12.865Z,99537.59
2023-03-25T16:06:50.747Z,99538.41
2023-03-25T16:09:28.695Z,99536.83
2023-03-25T16:12:04.576Z,99531.23
2023-03-25T16:14:39.434Z,99536.11
2023-03-25T16:17:16.676Z,99536.66
2023-03-25T16:19:53.221Z,99532.09
2023-03-25T16:22:30.514Z,99533.19
2023-03-25T16:25:06.798Z,99533.20
2023-03-25T16:27:45.643Z,99531.62
2023-03-25T16:30:29.268Z,99525.72
2023-03-25T16:33:17.469Z,99540.81
2023-03-25T16:35:56.650Z,99534.08
2023-03-25T16:38:30.902Z,99535.97
2023-03-25T16:41:05.792Z,99542.19
2023-03-25T16:43:39.529Z,99535.73
2023-03-25T16:46:16.407Z,99536.82
2023-03-25T16:48:55.094Z,99541.39
2023-03-25T16:51:32.329Z,99545.98
2023-03-25T16:54:13.383Z,99539.53
2023-03-25T16:56:47.014Z,99536.03
2023-03-25T16:59:24.432Z,99541.13
2023-03-25T17:01:59.659Z,99540.88
2023-03-25T17:04:42.176Z,99551.35
2023-03-25T17:07:21.109Z,99551.10
2023-03-25T17:09:56.970Z,99540.88
2023-03-25T17:12:31.964Z,99542.20
2023-03-25T17:15:09.485Z,99545.19
2023-03-25T17:17:49.718Z,99544.89
2023-03-25T17:20:28.271Z,99538.98
2023-03-25T17:23:04.583Z,99545.97
2023-03-25T17:25:52.087Z,99541.41
2023-03-25T17:28:33.884Z,99546.79
2023-03-25T17:31:22.047Z,99545.70
2023-03-25T17:34:00.696Z,99534.38
2023-03-25T17:36:36.445Z,99542.16
2023-03-25T17:39:19.112Z,99541.89
2023-03-25T17:41:59.161Z,99533.54
2023-03-25T17:44:37.474Z,99534.07
2023-03-25T17:47:14.713Z,99535.42
2023-03-25T17:49:48.346Z,99534.34
2023-03-25T17:52:21.745Z,99536.20
2023-03-25T17:54:55.342Z,99536.48
2023-03-25T17:57:28.797Z,99538.88
2023-03-25T18:00:02.202Z,99535.39
2023-03-25T18:02:41.846Z,99541.83
2023-03-25T18:05:15.982Z,99539.13
2023-03-25T18:07:49.482Z,99535.34
2023-03-25T18:10:25.710Z,99532.64
2023-03-25T18:12:59.345Z,99536.11
2023-03-25T18:15:33.454Z,99535.30
2023-03-25T18:18:08.216Z,99546.81
2023-03-25T18:20:41.672Z,99548.41
2023-03-25T18:23:15.837Z,99551.61
2023-03-25T18:25:49.405Z,99542.46
2023-03-25T18:28:22.894Z,99540.83
2023-03-25T18:30:58.873Z,99545.92
2023-03-25T18:33:34.912Z,99543.21
2023-03-25T18:36:10.690Z,99549.04
2023-03-25T18:38:44.716Z,99537.20
2023-03-25T18:41:18.563Z,99546.02
2023-03-25T18:43:52.184Z,99544.37
2023-03-25T18:46:25.777Z,99541.42
2023-03-25T18:49:03.060Z,99536.81
2023-03-25T18:51:37.670Z,99532.75
2023-03-25T18:54:11.084Z,99534.58
2023-03-25T18:56:44.629Z,99539.11
2023-03-25T18:59:20.792Z,99539.08
2023-03-25T19:01:54.194Z,99544.40
2023-03-25T19:04:29.776Z,99540.06
2023-03-25T19:07:04.227Z,99533.83
2023-03-25T19:09:37.594Z,99542.90
2023-03-25T19:12:12.132Z,99539.89
2023-03-25T19:14:45.404Z,99542.53
2023-03-25T19:17:19.027Z,99540.30
2023-03-25T19:19:52.401Z,99537.81
2023-03-25T19:22:26.220Z,99547.10
2023-03-25T19:25:00.101Z,99547.29
2023-03-25T19:27:33.637Z,99549.59
2023-03-25T19:30:09.118Z,99541.45
2023-03-25T19:32:44.306Z,99533.63
2023-03-25T19:35:19.139Z,99528.71
2023-03-25T19:37:52.540Z,99532.62
2023-03-25T19:40:28.762Z,99529.59
2023-03-25T19:43:05.396Z,99526.52
2023-03-25T19:45:38.840Z,99524.27
2023-03-25T19:48:12.440Z,99531.44
2023-03-25T19:50:45.632Z,99529.99
2023-03-25T19:53:18.607Z,99537.39
2023-03-25T19:55:52.983Z,99534.34
2023-03-25T19:58:27.469Z,99536.37
2023-03-25T20:01:01.748Z,99534.42
2023-03-25T20:03:36.586Z,99537.48
2023-03-25T20:06:11.554Z,99535.55
2023-03-25T20:08:45.163Z,99537.89
2023-03-25T20:11:18.731Z,99536.45
2023-03-25T20:13:52.568Z,99535.55
2023-03-25T20:16:28.007Z,99538.96
2023-03-25T20:19:01.295Z,99540.50
2023-03-25T20:21:34.976Z,99542.03
2023-03-25T20:24:09.509Z,99537.97
2023-03-25T20:26:42.806Z,99533.36
2023-03-25T20:29:17.851Z,99547.21
2023-03-25T20:31:51.339Z,99550.11
2023-03-25T20:34:24.823Z,99553.52
2023-03-25T20:36:58.226Z,99559.56
2023-03-25T20:39:32.019Z,99554.70
2023-03-25T20:42:05.823Z,99557.86
2023-03-25T20:44:39.456Z,99557.54
2023-03-25T20:47:13.651Z,99557.19
2023-03-25T20:49:47.267Z,99558.50
2023-03-25T20:52:21.049Z,99558.15
2023-03-25T20:54:55.786Z,99566.42
2023-03-25T20:57:29.343Z,99563.66
2023-03-25T21:00:02.740Z,99567.84
2023-03-25T21:02:36.118Z,99558.69
2023-03-25T21:05:11.245Z,99568.45
2023-03-25T21:07:44.858Z,99564.88
2023-03-25T21:10:20.360Z,99565.00
2023-03-25T21:12:53.733Z,99560.39
2023-03-25T21:15:27.544Z,99557.04
2023-03-25T21:18:01.225Z,99553.41
2023-03-25T21:20:34.733Z,99556.80
2023-03-25T21:23:10.003Z,99556.45
2023-03-25T21:25:43.572Z,99556.91
2023-03-25T21:28:18.161Z,99558.43
2023-03-25T21:31:03.490Z,99560.74
2023-03-25T21:33:38.576Z,99558.21
2023-03-25T21:36:14.822Z,99555.19
2023-03-25T21:38:48.775Z,99552.19
2023-03-25T21:41:22.435Z,99559.83
2023-03-25T21:43:55.492Z,99554.97
2023-03-25T21:46:29.571Z,99551.39
2023-03-25T21:49:04.565Z,99549.19
2023-03-25T21:51:42.924Z,99546.16
2023-03-25T21:54:16.316Z,99553.58
2023-03-25T21:56:55.132Z,99552.42
2023-03-25T21:59:28.840Z,99552.66
2023-03-25T22:02:02.446Z,99557.05
2023-03-25T22:04:37.877Z,99557.98
2023-03-25T22:07:11.244Z,99564.02
2023-03-25T22:09:44.700Z,99563.89
2023-03-25T22:12:18.266Z,99566.19
2023-03-25T22:14:51.947Z,99562.61
2023-03-25T22:17:25.310Z,99572.10
2023-03-25T22:19:58.660Z,99571.98
2023-03-25T22:22:31.681Z,99578.80
2023-03-25T22:25:05.643Z,99588.05
2023-03-25T22:27:39.652Z,99590.37
2023-03-25T22:30:16.937Z,99589.20
2023-03-25T22:32:50.399Z,99590.70
2023-03-25T22:35:24.136Z,99587.66
2023-03-25T22:37:57.855Z,99590.19
2023-03-25T22:40:31.142Z,99594.12
2023-03-25T22:43:04.731Z,99584.73
2023-03-25T22:45:38.193Z,99578.02
2023-03-25T22:48:11.714Z,99586.42
2023-03-25T22:50:45.733Z,99595.08
2023-03-25T22:53:19.540Z,99584.67
2023-03-25T22:55:55.458Z,99587.78
2023-03-25T22:58:31.636Z,99587.19
2023-03-25T23:01:07.633Z,99596.22
2023-03-25T23:03:41.666Z,99602.58
2023-03-25T23:06:15.672Z,99593.17
2023-03-25T23:08:49.139Z,99593.42
2023-03-25T23:11:25.592Z,99592.00
2023-03-25T23:14:01.862Z,99599.39
2023-03-25T23:16:35.990Z,99608.87
2023-03-25T23:19:10.967Z,99618.34
2023-03-25T23:21:44.727Z,99616.95
2023-03-25T23:24:18.110Z,99622.92
2023-03-25T23:26:51.581Z,99634.25
2023-03-25T23:29:25.122Z,99634.69
2023-03-25T23:31:58.553Z,99634.30
2023-03-25T23:34:31.935Z,99636.38
2023-03-25T23:37:06.739Z,99637.65
2023-03-25T23:39:42.153Z,99647.70
2023-03-25T23:42:15.972Z,99651.59
2023-03-25T23:44:49.935Z,99646.52
2023-03-25T23:47:23.430Z,99642.22
2023-03-25T23:49:58.275Z,99645.68
2023-03-25T23:52:33.631Z,99651.00
2023-03-25T23:55:12.538Z,99656.33
2023-03-25T23:57:46.164Z,99660.02
